BAW55W EGLL-EDDH
Flight info
| Callsign | BAW55W |
|---|---|
| Flight time | 1h 15m |
| Altitude | 35000 |
| Route | BPK Q295 SOMVA DCT MAVAS DCT VALAM DCT GASTU DCT OSTOR/N0401F230 T904 RIBSO RIBSO3P |
| Aircraft | A321/M-SDE3FGHIRWY/LB1 |
Departure
| Time | 2026-04-21 15:29 |
|---|---|
| Airport | London Heathrow Airport (EGLL) |
Arrival
| Time | 2026-04-21 16:45 |
|---|---|
| Airport | Hamburg Helmut Schmidt Airport (EDDH) |
| Time | Latitude | Longitude | Altitude | Speed | Heading |
|---|---|---|---|---|---|
| 2026-04-21 15:02 | 51.47187 | -0.48593 | 86 ft | 0 kts | 269° |
| 2026-04-21 15:23 | 51.47188 | -0.48561 | 87 ft | 4 kts | 263° |
| 2026-04-21 15:23 | 51.47193 | -0.48519 | 90 ft | 4 kts | 249° |
| 2026-04-21 15:23 | 51.47206 | -0.48484 | 91 ft | 4 kts | 216° |
| 2026-04-21 15:23 | 51.47222 | -0.48474 | 90 ft | 1 kts | 179° |
| 2026-04-21 15:24 | 51.47225 | -0.48474 | 90 ft | 0 kts | 179° |
| 2026-04-21 15:26 | 51.47218 | -0.48474 | 90 ft | 4 kts | 179° |
| 2026-04-21 15:26 | 51.47165 | -0.48471 | 86 ft | 9 kts | 179° |
| 2026-04-21 15:26 | 51.47083 | -0.48471 | 89 ft | 13 kts | 180° |
| 2026-04-21 15:27 | 51.46993 | -0.48470 | 88 ft | 13 kts | 179° |
| 2026-04-21 15:27 | 51.46898 | -0.48469 | 89 ft | 14 kts | 179° |
| 2026-04-21 15:27 | 51.46797 | -0.48468 | 86 ft | 15 kts | 180° |
| 2026-04-21 15:27 | 51.46693 | -0.48470 | 86 ft | 16 kts | 179° |
| 2026-04-21 15:28 | 51.46583 | -0.48466 | 86 ft | 16 kts | 179° |
| 2026-04-21 15:28 | 51.46495 | -0.48447 | 88 ft | 11 kts | 140° |
| 2026-04-21 15:28 | 51.46480 | -0.48329 | 87 ft | 11 kts | 90° |
| 2026-04-21 15:28 | 51.46481 | -0.48141 | 88 ft | 40 kts | 90° |
| 2026-04-21 15:29 | 51.46483 | -0.47317 | 88 ft | 105 kts | 90° |
| 2026-04-21 15:29 | 51.46488 | -0.45849 | 89 ft | 156 kts | 90° |
| 2026-04-21 15:29 | 51.46467 | -0.44086 | 697 ft | 157 kts | 89° |
| 2026-04-21 15:29 | 51.46484 | -0.42331 | 1448 ft | 158 kts | 85° |
| 2026-04-21 15:30 | 51.46700 | -0.40547 | 1834 ft | 173 kts | 68° |
| 2026-04-21 15:30 | 51.47428 | -0.38879 | 2101 ft | 194 kts | 47° |
| 2026-04-21 15:30 | 51.48444 | -0.37238 | 2224 ft | 221 kts | 50° |
| 2026-04-21 15:30 | 51.49480 | -0.35306 | 2736 ft | 233 kts | 52° |
| 2026-04-21 15:31 | 51.50517 | -0.33283 | 3508 ft | 236 kts | 52° |
| 2026-04-21 15:31 | 51.51559 | -0.31236 | 4267 ft | 238 kts | 53° |
| 2026-04-21 15:31 | 51.52473 | -0.29023 | 4957 ft | 239 kts | 66° |
| 2026-04-21 15:31 | 51.53050 | -0.26506 | 5658 ft | 242 kts | 73° |
| 2026-04-21 15:32 | 51.53601 | -0.23930 | 6040 ft | 245 kts | 68° |
| 2026-04-21 15:32 | 51.54549 | -0.21634 | 6413 ft | 251 kts | 47° |
| 2026-04-21 15:32 | 51.56015 | -0.20109 | 6805 ft | 261 kts | 22° |
| 2026-04-21 15:32 | 51.57762 | -0.19250 | 7581 ft | 263 kts | 24° |
| 2026-04-21 15:33 | 51.59469 | -0.18189 | 8213 ft | 267 kts | 23° |
| 2026-04-21 15:33 | 51.61246 | -0.17211 | 8886 ft | 270 kts | 22° |
| 2026-04-21 15:33 | 51.63047 | -0.16273 | 9554 ft | 273 kts | 21° |
| 2026-04-21 15:33 | 51.64886 | -0.15361 | 10189 ft | 278 kts | 21° |
| 2026-04-21 15:34 | 51.66759 | -0.14465 | 10685 ft | 287 kts | 20° |
| 2026-04-21 15:34 | 51.68743 | -0.13531 | 10809 ft | 308 kts | 20° |
| 2026-04-21 15:34 | 51.70795 | -0.12286 | 10934 ft | 323 kts | 30° |
| 2026-04-21 15:34 | 51.72677 | -0.10205 | 11051 ft | 336 kts | 45° |
| 2026-04-21 15:35 | 51.74232 | -0.07335 | 11303 ft | 344 kts | 58° |
| 2026-04-21 15:35 | 51.75318 | -0.03884 | 11724 ft | 347 kts | 71° |
| 2026-04-21 15:35 | 51.75856 | -0.00138 | 12254 ft | 348 kts | 82° |
| 2026-04-21 15:35 | 51.76183 | 0.03752 | 12714 ft | 352 kts | 82° |
| 2026-04-21 15:36 | 51.76514 | 0.07697 | 13234 ft | 355 kts | 82° |
| 2026-04-21 15:36 | 51.76840 | 0.11664 | 13802 ft | 357 kts | 83° |
| 2026-04-21 15:36 | 51.77163 | 0.15664 | 14244 ft | 362 kts | 83° |
| 2026-04-21 15:36 | 51.77489 | 0.19710 | 14719 ft | 364 kts | 83° |
| 2026-04-21 15:37 | 51.77819 | 0.23780 | 15220 ft | 366 kts | 82° |
| 2026-04-21 15:37 | 51.78152 | 0.27886 | 15620 ft | 371 kts | 82° |
| 2026-04-21 15:37 | 51.78489 | 0.32041 | 16109 ft | 373 kts | 82° |
| 2026-04-21 15:37 | 51.78823 | 0.36160 | 16518 ft | 378 kts | 82° |
| 2026-04-21 15:38 | 51.79166 | 0.40391 | 16907 ft | 382 kts | 82° |
| 2026-04-21 15:38 | 51.79511 | 0.44664 | 17349 ft | 385 kts | 82° |
| 2026-04-21 15:38 | 51.79853 | 0.48972 | 17714 ft | 389 kts | 82° |
| 2026-04-21 15:38 | 51.80192 | 0.53318 | 18181 ft | 390 kts | 81° |
| 2026-04-21 15:39 | 51.80531 | 0.57673 | 18606 ft | 393 kts | 82° |
| 2026-04-21 15:39 | 51.80878 | 0.62082 | 18921 ft | 396 kts | 81° |
| 2026-04-21 15:39 | 51.81498 | 0.66416 | 19326 ft | 396 kts | 71° |
| 2026-04-21 15:39 | 51.82517 | 0.70576 | 19616 ft | 400 kts | 66° |
| 2026-04-21 15:40 | 51.83604 | 0.74740 | 20003 ft | 403 kts | 66° |
| 2026-04-21 15:40 | 51.84690 | 0.78930 | 20347 ft | 406 kts | 66° |
| 2026-04-21 15:40 | 51.85783 | 0.83170 | 20685 ft | 409 kts | 66° |
| 2026-04-21 15:40 | 51.86881 | 0.87427 | 21050 ft | 412 kts | 65° |
| 2026-04-21 15:41 | 51.87989 | 0.91728 | 21379 ft | 415 kts | 65° |
| 2026-04-21 15:41 | 51.89102 | 0.96053 | 21732 ft | 418 kts | 66° |
| 2026-04-21 15:41 | 51.90206 | 1.00352 | 22117 ft | 419 kts | 65° |
| 2026-04-21 15:41 | 51.91321 | 1.04710 | 22563 ft | 419 kts | 66° |
| 2026-04-21 15:42 | 51.92440 | 1.09093 | 22890 ft | 422 kts | 66° |
| 2026-04-21 15:42 | 51.93562 | 1.13498 | 23250 ft | 424 kts | 65° |
| 2026-04-21 15:42 | 51.94690 | 1.17930 | 23568 ft | 427 kts | 66° |
| 2026-04-21 15:42 | 51.95824 | 1.22393 | 23902 ft | 429 kts | 66° |
| 2026-04-21 15:43 | 51.96965 | 1.26888 | 24144 ft | 432 kts | 65° |
| 2026-04-21 15:43 | 51.98114 | 1.31425 | 24403 ft | 435 kts | 65° |
| 2026-04-21 15:43 | 51.99261 | 1.35978 | 24643 ft | 438 kts | 66° |
| 2026-04-21 15:43 | 52.00412 | 1.40564 | 24895 ft | 440 kts | 65° |
| 2026-04-21 15:44 | 52.01572 | 1.45185 | 25134 ft | 443 kts | 64° |
| 2026-04-21 15:44 | 52.02738 | 1.49828 | 25431 ft | 444 kts | 65° |
| 2026-04-21 15:44 | 52.03904 | 1.54480 | 25733 ft | 445 kts | 66° |
| 2026-04-21 15:44 | 52.05069 | 1.59141 | 26064 ft | 446 kts | 64° |
| 2026-04-21 15:45 | 52.06220 | 1.63765 | 26317 ft | 448 kts | 65° |
| 2026-04-21 15:45 | 52.07390 | 1.68462 | 26555 ft | 450 kts | 65° |
| 2026-04-21 15:45 | 52.08585 | 1.73257 | 26784 ft | 452 kts | 66° |
| 2026-04-21 15:45 | 52.09751 | 1.77943 | 26998 ft | 454 kts | 64° |
| 2026-04-21 15:46 | 52.10934 | 1.82720 | 27198 ft | 457 kts | 64° |
| 2026-04-21 15:46 | 52.12121 | 1.87520 | 27419 ft | 459 kts | 64° |
| 2026-04-21 15:46 | 52.13312 | 1.92359 | 27616 ft | 460 kts | 65° |
| 2026-04-21 15:46 | 52.14499 | 1.97212 | 27823 ft | 462 kts | 65° |
| 2026-04-21 15:47 | 52.15685 | 2.02069 | 28112 ft | 461 kts | 66° |
| 2026-04-21 15:47 | 52.16868 | 2.06913 | 28428 ft | 460 kts | 65° |
| 2026-04-21 15:47 | 52.18051 | 2.11752 | 28701 ft | 459 kts | 65° |
| 2026-04-21 15:47 | 52.19233 | 2.16597 | 28948 ft | 459 kts | 64° |
| 2026-04-21 15:48 | 52.20410 | 2.21437 | 29197 ft | 460 kts | 65° |
| 2026-04-21 15:48 | 52.21584 | 2.26283 | 29450 ft | 460 kts | 65° |
| 2026-04-21 15:48 | 52.22757 | 2.31133 | 29699 ft | 460 kts | 66° |
| 2026-04-21 15:48 | 52.23929 | 2.35988 | 29948 ft | 460 kts | 65° |
| 2026-04-21 15:49 | 52.25085 | 2.40789 | 30187 ft | 460 kts | 66° |
| 2026-04-21 15:49 | 52.26249 | 2.45650 | 30450 ft | 460 kts | 65° |
| 2026-04-21 15:49 | 52.27405 | 2.50495 | 30858 ft | 454 kts | 67° |
| 2026-04-21 15:49 | 52.28544 | 2.55270 | 31238 ft | 449 kts | 67° |
| 2026-04-21 15:50 | 52.29676 | 2.60013 | 31480 ft | 448 kts | 66° |
| 2026-04-21 15:50 | 52.30781 | 2.64781 | 31660 ft | 450 kts | 68° |
| 2026-04-21 15:50 | 52.31666 | 2.69690 | 31850 ft | 451 kts | 71° |
| 2026-04-21 15:50 | 52.32535 | 2.74620 | 32017 ft | 451 kts | 70° |
| 2026-04-21 15:51 | 52.33399 | 2.79549 | 32195 ft | 451 kts | 72° |
| 2026-04-21 15:51 | 52.34266 | 2.84486 | 32359 ft | 452 kts | 70° |
| 2026-04-21 15:51 | 52.35136 | 2.89428 | 32545 ft | 452 kts | 70° |
| 2026-04-21 15:51 | 52.36004 | 2.94382 | 32715 ft | 453 kts | 71° |
| 2026-04-21 15:52 | 52.36867 | 2.99333 | 32908 ft | 452 kts | 71° |
| 2026-04-21 15:52 | 52.37726 | 3.04276 | 33138 ft | 451 kts | 71° |
| 2026-04-21 15:52 | 52.38291 | 3.07543 | 33275 ft | 451 kts | 72° |
| 2026-04-21 15:52 | 52.39434 | 3.14156 | 33491 ft | 451 kts | 71° |
| 2026-04-21 15:53 | 52.40535 | 3.18934 | 33642 ft | 447 kts | 61° |
| 2026-04-21 15:53 | 52.41901 | 3.23508 | 33787 ft | 447 kts | 60° |
| 2026-04-21 15:53 | 52.43255 | 3.28025 | 33952 ft | 448 kts | 60° |
| 2026-04-21 15:53 | 52.44625 | 3.32614 | 34102 ft | 448 kts | 61° |
| 2026-04-21 15:54 | 52.45990 | 3.37211 | 34254 ft | 449 kts | 61° |
| 2026-04-21 15:54 | 52.47350 | 3.41819 | 34390 ft | 449 kts | 61° |
| 2026-04-21 15:54 | 52.48704 | 3.46429 | 34567 ft | 448 kts | 60° |
| 2026-04-21 15:54 | 52.50053 | 3.51027 | 34748 ft | 446 kts | 62° |
| 2026-04-21 15:55 | 52.51392 | 3.55595 | 35002 ft | 442 kts | 62° |
| 2026-04-21 15:55 | 52.52729 | 3.60149 | 35163 ft | 442 kts | 62° |
| 2026-04-21 15:55 | 52.53610 | 3.63150 | 35276 ft | 441 kts | 61° |
| 2026-04-21 15:55 | 52.54942 | 3.67699 | 35341 ft | 442 kts | 62° |
| 2026-04-21 15:56 | 52.57603 | 3.76828 | 35348 ft | 444 kts | 62° |
| 2026-04-21 15:56 | 52.60262 | 3.85995 | 35348 ft | 444 kts | 62° |
| 2026-04-21 15:57 | 52.62918 | 3.95168 | 35351 ft | 444 kts | 63° |
| 2026-04-21 15:57 | 52.65569 | 4.04348 | 35348 ft | 443 kts | 63° |
| 2026-04-21 15:58 | 52.68198 | 4.13530 | 35350 ft | 443 kts | 63° |
| 2026-04-21 15:58 | 52.70823 | 4.22721 | 35366 ft | 442 kts | 63° |
| 2026-04-21 15:59 | 52.73439 | 4.31887 | 35370 ft | 441 kts | 64° |
| 2026-04-21 15:59 | 52.76027 | 4.40988 | 35373 ft | 441 kts | 63° |
| 2026-04-21 16:00 | 52.78619 | 4.50160 | 35387 ft | 440 kts | 63° |
| 2026-04-21 16:00 | 52.81204 | 4.59325 | 35386 ft | 440 kts | 63° |
| 2026-04-21 16:01 | 52.83779 | 4.68499 | 35378 ft | 440 kts | 63° |
| 2026-04-21 16:01 | 52.86347 | 4.77680 | 35379 ft | 439 kts | 63° |
| 2026-04-21 16:02 | 52.88900 | 4.86872 | 35375 ft | 440 kts | 64° |
| 2026-04-21 16:02 | 52.91445 | 4.96084 | 35370 ft | 439 kts | 64° |
| 2026-04-21 16:03 | 52.93990 | 5.05284 | 35390 ft | 439 kts | 64° |
| 2026-04-21 16:03 | 52.96523 | 5.14482 | 35386 ft | 438 kts | 64° |
| 2026-04-21 16:04 | 52.99036 | 5.23674 | 35382 ft | 437 kts | 65° |
| 2026-04-21 16:04 | 53.01538 | 5.32853 | 35384 ft | 436 kts | 65° |
| 2026-04-21 16:05 | 53.03988 | 5.41989 | 35381 ft | 436 kts | 66° |
| 2026-04-21 16:05 | 53.06284 | 5.51316 | 35379 ft | 436 kts | 67° |
| 2026-04-21 16:06 | 53.08510 | 5.60694 | 35386 ft | 436 kts | 68° |
| 2026-04-21 16:06 | 53.10736 | 5.70072 | 35383 ft | 435 kts | 68° |
| 2026-04-21 16:07 | 53.12983 | 5.79422 | 35373 ft | 435 kts | 68° |
| 2026-04-21 16:07 | 53.15225 | 5.88767 | 35381 ft | 434 kts | 68° |
| 2026-04-21 16:08 | 53.18566 | 6.02776 | 35378 ft | 433 kts | 68° |
| 2026-04-21 16:09 | 53.20769 | 6.12129 | 35376 ft | 433 kts | 69° |
| 2026-04-21 16:09 | 53.22965 | 6.21479 | 35385 ft | 433 kts | 69° |
| 2026-04-21 16:10 | 53.25162 | 6.30823 | 35377 ft | 432 kts | 69° |
| 2026-04-21 16:10 | 53.27339 | 6.40116 | 35370 ft | 432 kts | 69° |
| 2026-04-21 16:11 | 53.29523 | 6.49478 | 35376 ft | 432 kts | 69° |
| 2026-04-21 16:11 | 53.31690 | 6.58844 | 35377 ft | 432 kts | 69° |
| 2026-04-21 16:12 | 53.33847 | 6.68222 | 35375 ft | 432 kts | 69° |
| 2026-04-21 16:12 | 53.36001 | 6.77600 | 35391 ft | 431 kts | 69° |
| 2026-04-21 16:13 | 53.38147 | 6.86988 | 35383 ft | 431 kts | 70° |
| 2026-04-21 16:13 | 53.40278 | 6.96365 | 35380 ft | 431 kts | 70° |
| 2026-04-21 16:14 | 53.42401 | 7.05755 | 35380 ft | 430 kts | 70° |
| 2026-04-21 16:14 | 53.44519 | 7.15141 | 35375 ft | 430 kts | 70° |
| 2026-04-21 16:15 | 53.46624 | 7.24532 | 35380 ft | 430 kts | 70° |
| 2026-04-21 16:15 | 53.48722 | 7.33917 | 35384 ft | 429 kts | 70° |
| 2026-04-21 16:16 | 53.50792 | 7.43218 | 35383 ft | 427 kts | 70° |
| 2026-04-21 16:16 | 53.52878 | 7.52618 | 35378 ft | 426 kts | 70° |
| 2026-04-21 16:17 | 53.54924 | 7.61888 | 35381 ft | 425 kts | 71° |
| 2026-04-21 16:17 | 53.56958 | 7.71169 | 35171 ft | 415 kts | 71° |
| 2026-04-21 16:17 | 53.57940 | 7.75663 | 34995 ft | 404 kts | 71° |
| 2026-04-21 16:18 | 53.58900 | 7.80062 | 34687 ft | 397 kts | 71° |
| 2026-04-21 16:18 | 53.59843 | 7.84394 | 33506 ft | 395 kts | 71° |
| 2026-04-21 16:18 | 53.60784 | 7.88724 | 32369 ft | 391 kts | 72° |
| 2026-04-21 16:18 | 53.61705 | 7.92986 | 31421 ft | 382 kts | 72° |
| 2026-04-21 16:19 | 53.62603 | 7.97141 | 30560 ft | 373 kts | 72° |
| 2026-04-21 16:19 | 53.63478 | 8.01195 | 29582 ft | 364 kts | 72° |
| 2026-04-21 16:19 | 53.64292 | 8.05179 | 28600 ft | 355 kts | 73° |
| 2026-04-21 16:19 | 53.65048 | 8.09099 | 27655 ft | 348 kts | 74° |
| 2026-04-21 16:20 | 53.65770 | 8.12954 | 26741 ft | 341 kts | 74° |
| 2026-04-21 16:20 | 53.66475 | 8.16744 | 25974 ft | 337 kts | 74° |
| 2026-04-21 16:20 | 53.67176 | 8.20497 | 25274 ft | 334 kts | 74° |
| 2026-04-21 16:20 | 53.67874 | 8.24208 | 24474 ft | 329 kts | 73° |
| 2026-04-21 16:21 | 53.68569 | 8.27890 | 24052 ft | 326 kts | 73° |
| 2026-04-21 16:21 | 53.69249 | 8.31497 | 23799 ft | 320 kts | 73° |
| 2026-04-21 16:21 | 53.69921 | 8.35059 | 23520 ft | 317 kts | 73° |
| 2026-04-21 16:21 | 53.70584 | 8.38585 | 23213 ft | 314 kts | 74° |
| 2026-04-21 16:22 | 53.71237 | 8.42042 | 22932 ft | 312 kts | 73° |
| 2026-04-21 16:22 | 53.71890 | 8.45516 | 22631 ft | 309 kts | 73° |
| 2026-04-21 16:22 | 53.72536 | 8.48951 | 22186 ft | 305 kts | 73° |
| 2026-04-21 16:22 | 53.73176 | 8.52356 | 21729 ft | 303 kts | 73° |
| 2026-04-21 16:23 | 53.73811 | 8.55735 | 21281 ft | 301 kts | 73° |
| 2026-04-21 16:23 | 53.74439 | 8.59098 | 20842 ft | 299 kts | 73° |
| 2026-04-21 16:23 | 53.75063 | 8.62444 | 20403 ft | 297 kts | 73° |
| 2026-04-21 16:23 | 53.75679 | 8.65765 | 19976 ft | 295 kts | 73° |
| 2026-04-21 16:24 | 53.76292 | 8.69067 | 19558 ft | 293 kts | 73° |
| 2026-04-21 16:24 | 53.76899 | 8.72345 | 19148 ft | 291 kts | 73° |
| 2026-04-21 16:24 | 53.77505 | 8.75605 | 18756 ft | 289 kts | 73° |
| 2026-04-21 16:24 | 53.78096 | 8.78798 | 18332 ft | 287 kts | 73° |
| 2026-04-21 16:25 | 53.78686 | 8.82002 | 17935 ft | 284 kts | 73° |
| 2026-04-21 16:25 | 53.79267 | 8.85167 | 17556 ft | 280 kts | 73° |
| 2026-04-21 16:25 | 53.79839 | 8.88296 | 17182 ft | 277 kts | 73° |
| 2026-04-21 16:25 | 53.80401 | 8.91385 | 16821 ft | 274 kts | 73° |
| 2026-04-21 16:26 | 53.80959 | 8.94448 | 16445 ft | 271 kts | 73° |
| 2026-04-21 16:26 | 53.81514 | 8.97482 | 16072 ft | 269 kts | 73° |
| 2026-04-21 16:26 | 53.82066 | 9.00489 | 15697 ft | 267 kts | 72° |
| 2026-04-21 16:26 | 53.82580 | 9.03491 | 15313 ft | 265 kts | 78° |
| 2026-04-21 16:27 | 53.82801 | 9.06572 | 14945 ft | 264 kts | 87° |
| 2026-04-21 16:27 | 53.82698 | 9.09677 | 14557 ft | 264 kts | 94° |
| 2026-04-21 16:27 | 53.82513 | 9.12770 | 14170 ft | 264 kts | 93° |
| 2026-04-21 16:27 | 53.82332 | 9.15872 | 13726 ft | 264 kts | 93° |
| 2026-04-21 16:28 | 53.82154 | 9.18958 | 13327 ft | 263 kts | 93° |
| 2026-04-21 16:28 | 53.81976 | 9.22029 | 12920 ft | 262 kts | 93° |
| 2026-04-21 16:28 | 53.81799 | 9.25089 | 12514 ft | 261 kts | 93° |
| 2026-04-21 16:28 | 53.81623 | 9.28103 | 12113 ft | 261 kts | 93° |
| 2026-04-21 16:29 | 53.81502 | 9.30165 | 11840 ft | 261 kts | 94° |
| 2026-04-21 16:29 | 53.80970 | 9.34126 | 11295 ft | 263 kts | 108° |
| 2026-04-21 16:29 | 53.80143 | 9.36903 | 11091 ft | 271 kts | 119° |
| 2026-04-21 16:29 | 53.79080 | 9.39583 | 10879 ft | 276 kts | 120° |
| 2026-04-21 16:30 | 53.78005 | 9.42282 | 10642 ft | 276 kts | 120° |
| 2026-04-21 16:30 | 53.76826 | 9.44855 | 10430 ft | 279 kts | 135° |
| 2026-04-21 16:30 | 53.75118 | 9.46450 | 10192 ft | 287 kts | 162° |
| 2026-04-21 16:30 | 53.73112 | 9.46561 | 9919 ft | 293 kts | 191° |
| 2026-04-21 16:31 | 53.71285 | 9.45166 | 9775 ft | 285 kts | 209° |
| 2026-04-21 16:31 | 53.69539 | 9.43839 | 9628 ft | 268 kts | 186° |
| 2026-04-21 16:31 | 53.67732 | 9.43821 | 9477 ft | 253 kts | 165° |
| 2026-04-21 16:31 | 53.66034 | 9.44562 | 9348 ft | 252 kts | 160° |
| 2026-04-21 16:32 | 53.64335 | 9.45318 | 9187 ft | 253 kts | 161° |
| 2026-04-21 16:32 | 53.62634 | 9.46012 | 9022 ft | 252 kts | 162° |
| 2026-04-21 16:32 | 53.60926 | 9.46688 | 8860 ft | 251 kts | 162° |
| 2026-04-21 16:32 | 53.59229 | 9.47352 | 8697 ft | 250 kts | 162° |
| 2026-04-21 16:33 | 53.57535 | 9.48017 | 8529 ft | 250 kts | 162° |
| 2026-04-21 16:33 | 53.55846 | 9.48681 | 8363 ft | 249 kts | 162° |
| 2026-04-21 16:33 | 53.54163 | 9.49341 | 8238 ft | 248 kts | 162° |
| 2026-04-21 16:33 | 53.52470 | 9.49901 | 8093 ft | 250 kts | 172° |
| 2026-04-21 16:34 | 53.50727 | 9.49668 | 7966 ft | 255 kts | 192° |
| 2026-04-21 16:34 | 53.49092 | 9.48489 | 7838 ft | 259 kts | 212° |
| 2026-04-21 16:34 | 53.47758 | 9.46461 | 7710 ft | 260 kts | 230° |
| 2026-04-21 16:34 | 53.46617 | 9.44149 | 7580 ft | 260 kts | 229° |
| 2026-04-21 16:35 | 53.45439 | 9.41790 | 7449 ft | 260 kts | 229° |
| 2026-04-21 16:35 | 53.44289 | 9.39506 | 7324 ft | 259 kts | 229° |
| 2026-04-21 16:35 | 53.42957 | 9.37521 | 7186 ft | 255 kts | 205° |
| 2026-04-21 16:35 | 53.41297 | 9.36667 | 7062 ft | 248 kts | 179° |
| 2026-04-21 16:36 | 53.39626 | 9.37039 | 6932 ft | 240 kts | 154° |
| 2026-04-21 16:36 | 53.38219 | 9.38454 | 6816 ft | 234 kts | 135° |
| 2026-04-21 16:36 | 53.37034 | 9.40314 | 6690 ft | 231 kts | 122° |
| 2026-04-21 16:36 | 53.36416 | 9.42690 | 6570 ft | 225 kts | 95° |
| 2026-04-21 16:37 | 53.36552 | 9.45248 | 6427 ft | 222 kts | 69° |
| 2026-04-21 16:37 | 53.37374 | 9.47422 | 6292 ft | 222 kts | 50° |
| 2026-04-21 16:37 | 53.38433 | 9.49542 | 6155 ft | 247 kts | 51° |
| 2026-04-21 16:37 | 53.39553 | 9.51780 | 6029 ft | 252 kts | 51° |
| 2026-04-21 16:38 | 53.40686 | 9.54031 | 5886 ft | 253 kts | 51° |
| 2026-04-21 16:38 | 53.41802 | 9.56247 | 5765 ft | 244 kts | 51° |
| 2026-04-21 16:38 | 53.42872 | 9.58374 | 5633 ft | 233 kts | 51° |
| 2026-04-21 16:38 | 53.43882 | 9.60386 | 5513 ft | 226 kts | 51° |
| 2026-04-21 16:39 | 53.44896 | 9.62406 | 5397 ft | 226 kts | 51° |
| 2026-04-21 16:39 | 53.45907 | 9.64422 | 5183 ft | 225 kts | 51° |
| 2026-04-21 16:39 | 53.46917 | 9.66437 | 4802 ft | 226 kts | 51° |
| 2026-04-21 16:39 | 53.47927 | 9.68452 | 4459 ft | 224 kts | 51° |
| 2026-04-21 16:40 | 53.48927 | 9.70451 | 4142 ft | 222 kts | 51° |
| 2026-04-21 16:40 | 53.49916 | 9.72429 | 3838 ft | 220 kts | 51° |
| 2026-04-21 16:40 | 53.50895 | 9.74389 | 3560 ft | 216 kts | 51° |
| 2026-04-21 16:40 | 53.51842 | 9.76285 | 3245 ft | 206 kts | 50° |
| 2026-04-21 16:41 | 53.52446 | 9.77496 | 3057 ft | 202 kts | 50° |
| 2026-04-21 16:41 | 53.53630 | 9.79872 | 2690 ft | 198 kts | 50° |
| 2026-04-21 16:41 | 53.54499 | 9.81615 | 2436 ft | 187 kts | 51° |
| 2026-04-21 16:41 | 53.55297 | 9.83218 | 2172 ft | 171 kts | 50° |
| 2026-04-21 16:42 | 53.56027 | 9.84686 | 1939 ft | 156 kts | 50° |
| 2026-04-21 16:42 | 53.56703 | 9.86046 | 1744 ft | 147 kts | 50° |
| 2026-04-21 16:42 | 53.57354 | 9.87354 | 1528 ft | 143 kts | 50° |
| 2026-04-21 16:42 | 53.57979 | 9.88614 | 1344 ft | 140 kts | 49° |
| 2026-04-21 16:43 | 53.58601 | 9.89866 | 1139 ft | 140 kts | 50° |
| 2026-04-21 16:43 | 53.59220 | 9.91115 | 970 ft | 137 kts | 50° |
| 2026-04-21 16:43 | 53.59839 | 9.92365 | 757 ft | 140 kts | 49° |
| 2026-04-21 16:43 | 53.60457 | 9.93617 | 535 ft | 139 kts | 50° |
| 2026-04-21 16:44 | 53.61090 | 9.94879 | 329 ft | 142 kts | 50° |
| 2026-04-21 16:44 | 53.61696 | 9.96119 | 162 ft | 140 kts | 50° |
| 2026-04-21 16:44 | 53.62319 | 9.97361 | 51 ft | 134 kts | 51° |
| 2026-04-21 16:44 | 53.62818 | 9.98379 | 50 ft | 88 kts | 50° |
| 2026-04-21 16:45 | 53.63095 | 9.98925 | 51 ft | 42 kts | 50° |
| 2026-04-21 16:45 | 53.63250 | 9.99250 | 53 ft | 18 kts | 52° |
| 2026-04-21 16:45 | 53.63295 | 9.99441 | 50 ft | 17 kts | 89° |
| 2026-04-21 16:45 | 53.63290 | 9.99531 | 50 ft | 4 kts | 98° |
| 2026-04-21 16:46 | 53.63288 | 9.99557 | 50 ft | 5 kts | 99° |
| 2026-04-21 16:46 | 53.63281 | 9.99628 | 50 ft | 7 kts | 99° |
| 2026-04-21 16:46 | 53.63275 | 9.99679 | 50 ft | 7 kts | 104° |
| 2026-04-21 16:46 | 53.63228 | 9.99762 | 50 ft | 8 kts | 154° |
| 2026-04-21 16:47 | 53.63171 | 9.99806 | 50 ft | 5 kts | 153° |
| 2026-04-21 16:47 | 53.63170 | 9.99807 | 50 ft | 0 kts | 153° |
| 2026-04-21 16:47 | 53.63169 | 9.99808 | 48 ft | 1 kts | 153° |
| 2026-04-21 16:48 | 53.63164 | 9.99812 | 49 ft | 2 kts | 152° |
| 2026-04-21 16:48 | 53.63127 | 9.99846 | 50 ft | 7 kts | 152° |
| 2026-04-21 16:48 | 53.63104 | 9.99866 | 50 ft | 3 kts | 152° |
| 2026-04-21 16:48 | 53.63045 | 9.99917 | 50 ft | 12 kts | 153° |
| 2026-04-21 16:49 | 53.62968 | 9.99982 | 50 ft | 13 kts | 152° |
| 2026-04-21 16:49 | 53.62964 | 10.00105 | 50 ft | 13 kts | 43° |
| 2026-04-21 16:49 | 53.63029 | 10.00180 | 48 ft | 8 kts | 33° |
| 2026-04-21 16:49 | 53.63062 | 10.00228 | 49 ft | 6 kts | 66° |
| 2026-04-21 16:50 | 53.63049 | 10.00303 | 48 ft | 5 kts | 118° |
| 2026-04-21 16:50 | 53.63046 | 10.00311 | 49 ft | 2 kts | 127° |
| 2026-04-21 16:50 | 53.63031 | 10.00326 | 51 ft | 3 kts | 155° |
| 2026-04-21 16:50 | 53.63014 | 10.00352 | 51 ft | 0 kts | 129° |